Time;durP1;ratioP1;P1;durP2;ratioP2;P2;SDS_P1;SDS_P2;PMS_P1;PMS_P2;Temp;Humidity;BMP_temperature;BMP_pressure;BME280_temperature;BME280_humidity;BME280_pressure;Samples;Min_cycle;Max_cycle;Signal;HPM_P1;HPM_P2
2023/10/17 00:01:54;;;;;;;38.80;13.60;;;;;;;3.24;81.88;100867.22;110509;1274;22235;-75
2023/10/17 00:04:32;;;;;;;35.70;14.10;;;;;;;3.18;81.89;100867.95;110501;1266;22279;-76
2023/10/17 00:07:03;;;;;;;31.70;13.10;;;;;;;3.14;81.99;100869.02;110513;1274;22357;-76
2023/10/17 00:09:36;;;;;;;33.10;13.50;;;;;;;3.09;82.05;100865.60;110475;1266;22337;-75
2023/10/17 00:12:25;;;;;;;34.60;13.70;;;;;;;3.05;81.91;100865.65;110497;1274;22398;-76
2023/10/17 00:15:16;;;;;;;32.70;12.60;;;;;;;3.00;81.96;100864.38;110524;1274;22302;-76
2023/10/17 00:17:47;;;;;;;34.00;11.70;;;;;;;2.97;81.96;100860.88;110529;1272;22388;-76
2023/10/17 00:20:18;;;;;;;38.60;13.40;;;;;;;2.93;81.98;100862.88;110463;1275;23525;-76
2023/10/17 00:22:51;;;;;;;32.90;12.90;;;;;;;2.90;82.11;100861.66;110433;1272;22400;-76
2023/10/17 00:25:25;;;;;;;28.80;11.30;;;;;;;2.87;82.20;100857.20;110452;1274;22980;-76
2023/10/17 00:27:57;;;;;;;31.80;12.40;;;;;;;2.85;82.29;100858.10;110437;1275;22368;-75
2023/10/17 00:30:31;;;;;;;29.30;12.40;;;;;;;2.83;82.41;100856.63;110350;1274;22391;-75
2023/10/17 00:33:05;;;;;;;35.30;13.70;;;;;;;2.81;82.47;100856.50;110446;1262;22258;-76
2023/10/17 00:35:38;;;;;;;29.40;11.60;;;;;;;2.80;82.60;100852.88;110471;1272;22410;-76
2023/10/17 00:38:11;;;;;;;31.50;11.70;;;;;;;2.79;82.78;100858.33;110516;1273;22425;-74
2023/10/17 00:40:49;;;;;;;27.80;10.60;;;;;;;2.75;82.80;100858.98;110492;1266;22167;-75
2023/10/17 00:43:20;;;;;;;27.50;10.70;;;;;;;2.72;82.90;100854.62;110432;1272;23393;-76
2023/10/17 00:45:50;;;;;;;30.20;10.70;;;;;;;2.68;82.78;100852.30;110442;1269;22402;-76
2023/10/17 00:48:23;;;;;;;32.50;10.90;;;;;;;2.66;82.80;100853.45;110472;1274;22149;-73
2023/10/17 00:51:06;;;;;;;25.80;10.50;;;;;;;2.63;82.73;100850.47;110477;1275;22258;-74
2023/10/17 00:53:40;;;;;;;30.90;11.00;;;;;;;2.61;82.86;100851.68;110484;1274;22140;-74
2023/10/17 00:56:11;;;;;;;28.00;10.40;;;;;;;2.59;83.09;100851.39;110463;1270;22333;-74
2023/10/17 00:58:43;;;;;;;27.70;10.30;;;;;;;2.59;83.07;100855.00;110453;1272;23046;-74
2023/10/17 01:01:16;;;;;;;25.30;9.70;;;;;;;2.58;82.94;100856.52;110459;1269;22380;-74
2023/10/17 01:03:51;;;;;;;28.50;10.10;;;;;;;2.53;82.75;100854.27;110486;1271;22335;-74
2023/10/17 01:06:34;;;;;;;30.50;11.20;;;;;;;2.49;82.69;100855.20;110478;1275;23033;-74
2023/10/17 01:09:17;;;;;;;26.90;10.90;;;;;;;2.43;82.61;100855.73;110465;1274;22165;-74
2023/10/17 01:11:48;;;;;;;27.70;10.40;;;;;;;2.38;82.54;100852.61;110420;1263;22500;-75
2023/10/17 01:14:19;;;;;;;31.00;11.90;;;;;;;2.34;82.64;100853.45;110469;1272;22192;-75
2023/10/17 01:16:52;;;;;;;28.40;11.30;;;;;;;2.31;82.58;100853.00;110496;1267;22314;-75
2023/10/17 01:19:24;;;;;;;27.10;10.10;;;;;;;2.27;82.57;100851.06;110494;1274;22678;-75
2023/10/17 01:21:56;;;;;;;27.00;10.10;;;;;;;2.24;83.34;100851.10;110429;1274;22176;-74
2023/10/17 01:24:27;;;;;;;28.40;10.90;;;;;;;2.22;83.23;100854.74;110504;1275;22356;-74
2023/10/17 01:26:57;;;;;;;27.40;9.70;;;;;;;2.19;83.12;100856.10;110432;1267;22433;-74
2023/10/17 01:29:28;;;;;;;26.20;10.40;;;;;;;2.15;82.92;100859.36;110477;1267;22400;-74
2023/10/17 01:31:59;;;;;;;26.90;9.10;;;;;;;2.11;82.93;100855.47;110485;1274;22303;-74
2023/10/17 01:34:30;;;;;;;23.90;8.10;;;;;;;2.07;82.80;100851.41;110347;1274;233911;-74
2023/10/17 01:37:02;;;;;;;26.10;9.00;;;;;;;2.03;82.78;100849.87;110480;1267;22763;-75
2023/10/17 01:39:34;;;;;;;29.30;10.60;;;;;;;1.99;82.78;100849.13;110485;1268;23009;-74
2023/10/17 01:42:05;;;;;;;25.00;9.30;;;;;;;1.96;82.82;100850.40;110492;1274;23108;-74
2023/10/17 01:44:36;;;;;;;23.90;8.20;;;;;;;1.96;82.90;100849.77;110502;1272;23149;-74
2023/10/17 01:47:07;;;;;;;25.20;9.20;;;;;;;1.94;82.89;100855.05;110480;1268;22304;-75
2023/10/17 01:49:39;;;;;;;21.90;9.10;;;;;;;1.92;82.88;100858.92;110466;1271;22429;-74
2023/10/17 01:52:11;;;;;;;25.80;9.70;;;;;;;1.90;82.82;100861.39;110419;1274;22868;-74
2023/10/17 01:54:47;;;;;;;24.30;8.80;;;;;;;1.88;82.86;100858.25;110439;1275;22168;-75
2023/10/17 01:57:17;;;;;;;25.10;9.00;;;;;;;1.86;83.03;100857.80;110492;1274;22339;-75
2023/10/17 01:59:48;;;;;;;26.70;8.80;;;;;;;1.84;82.99;100857.65;110398;1275;22345;-74
2023/10/17 02:02:23;;;;;;;31.00;9.80;;;;;;;1.83;82.98;100857.35;110491;1273;22257;-75
2023/10/17 02:04:54;;;;;;;22.80;9.50;;;;;;;1.80;83.08;100858.39;110474;1275;22943;-75
2023/10/17 02:07:25;;;;;;;21.60;8.90;;;;;;;1.77;83.11;100856.77;110458;1275;22142;-74
2023/10/17 02:09:56;;;;;;;25.20;9.40;;;;;;;1.75;83.05;100858.98;110437;1274;22839;-75
2023/10/17 02:12:28;;;;;;;24.40;9.10;;;;;;;1.74;83.17;100858.05;110496;1274;22206;-75
2023/10/17 02:15:00;;;;;;;26.60;9.10;;;;;;;1.72;83.21;100858.77;110446;1269;22130;-75
2023/10/17 02:17:31;;;;;;;24.80;9.60;;;;;;;1.70;83.25;100862.56;110452;1274;22336;-74
2023/10/17 02:20:20;;;;;;;31.30;10.70;;;;;;;1.69;83.29;100865.48;110484;1265;22140;-74
2023/10/17 02:22:51;;;;;;;23.80;10.50;;;;;;;1.67;83.44;100862.58;110439;1274;22314;-74
2023/10/17 02:25:27;;;;;;;32.70;11.80;;;;;;;1.68;83.74;100864.38;110475;1275;22258;-74
2023/10/17 02:27:58;;;;;;;26.70;11.20;;;;;;;1.70;83.72;100862.33;110471;1275;22965;-74
2023/10/17 02:30:29;;;;;;;30.90;12.00;;;;;;;1.69;83.62;100861.54;110499;1275;23075;-75
2023/10/17 02:33:01;;;;;;;32.20;10.90;;;;;;;1.66;83.53;100861.41;110471;1275;22256;-74
2023/10/17 02:35:37;;;;;;;34.20;11.90;;;;;;;1.62;83.46;100862.84;110466;1273;22939;-75
2023/10/17 02:38:08;;;;;;;29.00;10.80;;;;;;;1.60;83.53;100862.31;110461;1267;23207;-75
2023/10/17 02:40:40;;;;;;;30.10;10.40;;;;;;;1.57;83.53;100862.80;110475;1273;22285;-74
2023/10/17 02:43:12;;;;;;;28.40;10.90;;;;;;;1.54;83.54;100863.45;110528;1274;23496;-74
2023/10/17 02:45:43;;;;;;;29.70;12.10;;;;;;;1.51;83.54;100865.36;110465;1274;22186;-75
2023/10/17 02:48:23;;;;;;;28.80;10.90;;;;;;;1.48;83.63;100861.52;110487;1272;22514;-75
2023/10/17 02:51:00;;;;;;;32.10;12.30;;;;;;;1.47;83.77;100869.54;110458;1274;23026;-74
2023/10/17 02:53:34;;;;;;;35.60;12.30;;;;;;;1.46;83.71;100873.23;110540;1267;22922;-74
2023/10/17 02:56:18;;;;;;;35.70;12.00;;;;;;;1.45;83.61;100869.39;110464;1274;22137;-75
2023/10/17 02:58:50;;;;;;;38.10;15.50;;;;;;;1.43;83.84;100867.68;110498;1274;23686;-75
2023/10/17 03:01:22;;;;;;;37.30;13.80;;;;;;;1.40;83.97;100866.44;110505;1274;22345;-74
2023/10/17 03:03:53;;;;;;;41.80;13.30;;;;;;;1.39;84.09;100869.90;110545;1273;22326;-74
2023/10/17 03:06:23;;;;;;;29.80;11.10;;;;;;;1.41;84.43;100871.06;110521;1274;22343;-74
2023/10/17 03:09:00;;;;;;;30.60;12.10;;;;;;;1.46;84.75;100870.65;110527;1273;22184;-74
2023/10/17 03:11:36;;;;;;;35.00;13.60;;;;;;;1.51;84.97;100872.73;110490;1267;22969;-74
2023/10/17 03:14:12;;;;;;;32.10;14.00;;;;;;;1.53;85.00;100872.27;110542;1267;22158;-74
2023/10/17 03:16:43;;;;;;;37.90;15.20;;;;;;;1.52;84.85;100879.42;110522;1267;22185;-74
2023/10/17 03:19:14;;;;;;;36.50;14.10;;;;;;;1.50;84.96;100882.58;110549;1273;22152;-74
2023/10/17 03:21:44;;;;;;;40.10;15.50;;;;;;;1.48;85.14;100879.68;110461;1274;22170;-74
2023/10/17 03:24:19;;;;;;;41.80;14.40;;;;;;;1.43;85.07;100879.39;110465;1272;22993;-74
2023/10/17 03:26:55;;;;;;;45.10;15.00;;;;;;;1.42;85.27;100879.72;110514;1267;23495;-75
2023/10/17 03:29:25;;;;;;;43.50;15.00;;;;;;;1.41;85.61;100881.77;110547;1271;22160;-74
2023/10/17 03:31:58;;;;;;;41.20;15.10;;;;;;;1.41;85.81;100880.59;110666;1274;22309;-74
2023/10/17 03:34:34;;;;;;;41.50;15.00;;;;;;;1.37;85.74;100878.01;110580;1267;22163;-74
2023/10/17 03:39:52;;;;;;;38.40;12.40;;;;;;;1.33;85.72;100879.22;110469;1275;22979;-74
2023/10/17 03:42:41;;;;;;;35.80;12.10;;;;;;;1.30;85.57;100882.99;110502;1273;22361;-74
2023/10/17 03:45:16;;;;;;;38.80;12.20;;;;;;;1.26;85.58;100882.08;110527;1267;22496;-74
2023/10/17 03:47:53;;;;;;;36.00;12.50;;;;;;;1.21;85.74;100885.08;110472;1275;22198;-74
2023/10/17 03:50:34;;;;;;;32.40;12.30;;;;;;;1.21;85.75;100884.38;110466;1267;22219;-75
2023/10/17 03:53:07;;;;;;;33.50;12.20;;;;;;;1.20;85.92;100889.41;110449;1274;22794;-75
2023/10/17 03:55:42;;;;;;;35.00;12.80;;;;;;;1.16;85.77;100887.55;110433;1267;22208;-74
2023/10/17 03:58:25;;;;;;;35.00;13.70;;;;;;;1.14;85.66;100890.86;110487;1273;22120;-74
2023/10/17 04:00:59;;;;;;;33.00;12.90;;;;;;;1.11;85.58;100894.33;110403;1267;22361;-74
2023/10/17 04:03:31;;;;;;;30.30;11.20;;;;;;;1.09;85.56;100891.98;110375;1274;23340;-74
2023/10/17 04:06:18;;;;;;;28.80;12.00;;;;;;;1.07;85.59;100891.35;110404;1274;23089;-76
2023/10/17 04:09:15;;;;;;;36.80;13.20;;;;;;;1.07;85.60;100889.94;110440;1272;22251;-74
2023/10/17 04:11:45;;;;;;;31.80;12.90;;;;;;;1.07;85.92;100889.55;110398;1274;22820;-74
2023/10/17 04:14:17;;;;;;;36.60;13.10;;;;;;;1.07;86.11;100888.69;110409;1267;22391;-74
2023/10/17 04:16:48;;;;;;;36.90;11.90;;;;;;;1.06;86.20;100887.75;110400;1267;22883;-73
2023/10/17 04:19:20;;;;;;;35.30;12.80;;;;;;;1.07;86.38;100883.50;110441;1273;22318;-75
2023/10/17 04:22:01;;;;;;;29.10;11.10;;;;;;;1.10;86.54;100883.09;110398;1275;22311;-73
2023/10/17 04:24:34;;;;;;;36.20;16.30;;;;;;;1.16;86.70;100882.83;110419;1274;22197;-74
2023/10/17 04:27:18;;;;;;;40.20;18.50;;;;;;;1.20;86.70;100883.29;110397;1268;22306;-74
2023/10/17 04:29:52;;;;;;;28.90;13.40;;;;;;;1.21;86.46;100884.63;110388;1267;22219;-74
2023/10/17 04:32:27;;;;;;;35.00;14.60;;;;;;;1.20;86.49;100888.86;110410;1275;23347;-75
2023/10/17 04:35:01;;;;;;;35.80;15.20;;;;;;;1.20;86.68;100887.76;110399;1269;22231;-74
2023/10/17 04:37:34;;;;;;;35.70;14.40;;;;;;;1.22;86.85;100890.42;110416;1275;22196;-74
2023/10/17 04:43:41;;;;;;;35.70;13.40;;;;;;;1.24;86.90;100898.67;110409;1274;22381;-74
2023/10/17 04:45:55;;;;;;;37.70;15.10;;;;;;;1.25;87.01;100900.39;110355;1267;22314;-74
2023/10/17 04:48:34;;;;;;;56.90;26.70;;;;;;;1.25;87.07;100902.51;110362;1267;22323;-74
2023/10/17 04:51:19;;;;;;;73.40;43.20;;;;;;;1.27;87.35;100902.59;110380;1275;23078;-74
2023/10/17 04:53:50;;;;;;;91.40;58.10;;;;;;;1.29;87.45;100902.02;110402;1267;22258;-74
2023/10/17 04:56:22;;;;;;;96.30;60.20;;;;;;;1.30;87.49;100902.02;110403;1274;22918;-73
2023/10/17 04:58:57;;;;;;;81.00;48.90;;;;;;;1.31;87.54;100902.65;110388;1267;22294;-74
2023/10/17 05:01:39;;;;;;;64.50;36.00;;;;;;;1.32;87.54;100900.45;110392;1272;23330;-74
2023/10/17 05:04:20;;;;;;;58.80;31.80;;;;;;;1.32;87.54;100904.52;110451;1274;22526;-74
2023/10/17 05:07:16;;;;;;;64.80;30.60;;;;;;;1.32;87.44;100907.27;110418;1267;22969;-73
2023/10/17 06:17:21;;;;;;;28.10;7.90;;;;;;;1.87;88.49;100947.63;110435;1266;22335;-74
2023/10/17 06:19:52;;;;;;;20.10;7.50;;;;;;;1.87;88.49;100952.66;110413;1274;22381;-74
2023/10/17 06:28:25;;;;;;;27.00;9.50;;;;;;;2.01;88.83;100950.20;110418;1274;22491;-74
2023/10/17 06:33:44;;;;;;;30.90;11.10;;;;;;;2.07;88.95;100955.67;110428;1267;23444;-79
2023/10/17 06:36:24;;;;;;;24.30;9.50;;;;;;;2.10;89.02;100955.64;110416;1270;22140;-78
2023/10/17 06:38:55;;;;;;;27.40;11.00;;;;;;;2.16;89.08;100955.99;110435;1274;22172;-78
2023/10/17 06:41:37;;;;;;;27.90;10.80;;;;;;;2.22;89.23;100957.60;110453;1274;22199;-78
2023/10/17 06:44:10;;;;;;;23.90;10.40;;;;;;;2.27;89.40;100962.05;110389;1274;22204;-78
2023/10/17 06:46:48;;;;;;;29.50;11.20;;;;;;;2.30;89.18;100964.63;110452;1274;23563;-79
2023/10/17 06:49:46;;;;;;;22.70;10.10;;;;;;;2.32;89.23;100964.86;110476;1274;22221;-79
2023/10/17 06:52:23;;;;;;;28.80;11.30;;;;;;;2.38;89.37;100967.88;110455;1274;22941;-78
2023/10/17 06:54:58;;;;;;;27.40;11.20;;;;;;;2.42;89.56;100969.66;110460;1274;22808;-77
2023/10/17 06:57:33;;;;;;;33.30;11.60;;;;;;;2.45;89.66;100965.52;110442;1274;22180;-77
2023/10/17 07:00:16;;;;;;;31.10;10.90;;;;;;;2.49;89.68;100970.07;110441;1274;22147;-78
2023/10/17 07:02:49;;;;;;;29.70;11.40;;;;;;;2.52;89.83;100973.90;110424;1274;22274;-78
2023/10/17 07:05:21;;;;;;;28.70;10.60;;;;;;;2.57;90.04;100973.62;110468;1274;22898;-78
2023/10/17 07:07:53;;;;;;;28.10;10.90;;;;;;;2.63;90.12;100976.25;110633;1273;22421;-79
2023/10/17 07:10:37;;;;;;;28.80;11.50;;;;;;;2.70;90.24;100979.65;110739;1274;22178;-78
2023/10/17 07:13:48;;;;;;;29.80;11.20;;;;;;;2.80;90.47;100979.70;110549;1274;22213;-78
2023/10/17 07:16:25;;;;;;;32.90;12.00;;;;;;;2.89;90.76;100982.70;110410;1274;22968;-77
2023/10/17 07:18:57;;;;;;;37.00;11.30;;;;;;;2.94;90.60;100987.06;110481;1274;22231;-79
2023/10/17 07:21:28;;;;;;;29.50;11.00;;;;;;;3.01;90.81;100981.63;110419;1259;22211;-78
2023/10/17 07:24:06;;;;;;;28.20;11.30;;;;;;;3.11;91.22;100979.70;110477;1274;22228;-77
2023/10/17 07:26:40;;;;;;;30.20;10.30;;;;;;;3.22;91.60;100977.39;110451;1274;22499;-78
2023/10/17 07:29:12;;;;;;;26.90;11.10;;;;;;;3.32;91.82;100978.45;110422;1274;22409;-78
2023/10/17 07:31:44;;;;;;;30.30;12.70;;;;;;;3.41;92.04;100978.27;110433;1274;22264;-78
2023/10/17 07:34:18;;;;;;;31.10;12.20;;;;;;;3.50;91.97;100980.77;110461;1274;22194;-78
2023/10/17 07:36:55;;;;;;;31.10;11.10;;;;;;;3.60;92.33;100983.46;110458;1274;22232;-78
2023/10/17 07:39:29;;;;;;;28.30;12.20;;;;;;;3.73;92.53;100981.88;110478;1274;22199;-78
2023/10/17 07:42:00;;;;;;;28.10;11.90;;;;;;;3.81;92.29;100984.61;110449;1274;22164;-77
2023/10/17 07:44:34;;;;;;;27.10;10.90;;;;;;;3.91;92.53;100982.83;110465;1274;22198;-78
2023/10/17 07:47:09;;;;;;;32.00;12.10;;;;;;;3.99;92.63;100981.37;110453;1268;22456;-78
2023/10/17 07:49:42;;;;;;;34.00;12.40;;;;;;;4.09;92.89;100982.49;110472;1274;22172;-78
2023/10/17 07:52:15;;;;;;;28.70;11.90;;;;;;;4.16;92.77;100976.55;110456;1274;22339;-78
2023/10/17 07:54:55;;;;;;;30.20;12.40;;;;;;;4.24;92.93;100976.34;110484;1274;22129;-78
2023/10/17 07:57:36;;;;;;;32.40;11.70;;;;;;;4.30;92.94;100977.05;110468;1274;22145;-78
2023/10/17 08:00:24;;;;;;;32.50;12.60;;;;;;;4.37;93.04;100976.60;110424;1261;22818;-78
2023/10/17 08:02:56;;;;;;;30.80;12.10;;;;;;;4.46;93.32;100976.14;110432;1274;22279;-78
2023/10/17 08:05:36;;;;;;;31.60;12.20;;;;;;;4.54;93.47;100977.59;110461;1274;22191;-79
2023/10/17 08:08:14;;;;;;;36.60;13.70;;;;;;;4.64;93.66;100975.30;110455;1274;23084;-78
2023/10/17 08:10:46;;;;;;;27.40;11.40;;;;;;;4.74;93.88;100979.07;110451;1274;22313;-79
2023/10/17 08:13:19;;;;;;;29.10;12.30;;;;;;;4.82;93.80;100983.73;110416;1275;22184;-78
2023/10/17 08:15:53;;;;;;;27.10;12.10;;;;;;;4.90;93.50;100980.54;110439;1264;22208;-78
2023/10/17 08:18:28;;;;;;;31.90;12.40;;;;;;;4.97;93.47;100982.23;110467;1274;22227;-77
2023/10/17 08:23:52;;;;;;;30.80;13.80;;;;;;;5.10;93.76;100980.56;110429;1274;22320;-78
2023/10/17 08:26:28;;;;;;;29.40;11.90;;;;;;;5.16;93.86;100982.57;110441;1274;22282;-78
2023/10/17 08:29:00;;;;;;;30.20;12.50;;;;;;;5.23;93.93;100979.83;110422;1274;22167;-78
2023/10/17 08:31:35;;;;;;;26.70;11.50;;;;;;;5.33;94.13;100978.95;110472;1274;23424;-78
2023/10/17 08:34:12;;;;;;;31.50;11.30;;;;;;;5.39;94.06;100981.80;110466;1274;22176;-78
2023/10/17 08:36:47;;;;;;;30.50;13.60;;;;;;;5.47;94.20;100980.05;110479;1270;22266;-78
2023/10/17 08:39:39;;;;;;;31.50;13.80;;;;;;;5.55;94.30;100983.95;110481;1274;22236;-78
2023/10/17 08:42:12;;;;;;;28.80;12.10;;;;;;;5.65;94.43;100982.46;110489;1274;22166;-78
2023/10/17 08:44:46;;;;;;;29.70;11.80;;;;;;;5.75;94.53;100985.98;110508;1273;22200;-78
2023/10/17 08:47:19;;;;;;;33.90;12.40;;;;;;;5.84;94.92;100985.71;110473;1274;22155;-78
2023/10/17 08:49:50;;;;;;;33.10;12.00;;;;;;;5.93;94.86;100989.49;110469;1274;22244;-79
2023/10/17 08:52:27;;;;;;;32.70;13.20;;;;;;;6.05;94.96;100987.88;110512;1274;22226;-78
2023/10/17 08:54:58;;;;;;;30.80;13.80;;;;;;;6.15;94.93;100987.66;110442;1274;22190;-78
2023/10/17 08:57:30;;;;;;;34.40;14.30;;;;;;;6.25;95.05;100984.24;110448;1274;22192;-78
2023/10/17 09:00:23;;;;;;;30.60;13.50;;;;;;;6.35;94.96;100987.81;110437;1274;22207;-78
2023/10/17 09:03:09;;;;;;;29.50;14.60;;;;;;;6.45;95.07;100988.20;110465;1274;22131;-78
2023/10/17 09:06:06;;;;;;;33.30;13.70;;;;;;;6.56;95.00;100987.14;110508;1259;22307;-79
2023/10/17 09:08:52;;;;;;;31.10;13.00;;;;;;;6.68;94.70;100989.70;110497;1274;22307;-78
2023/10/17 09:11:33;;;;;;;33.90;14.10;;;;;;;6.78;94.91;100986.20;110434;1274;23016;-78
2023/10/17 09:14:18;;;;;;;32.40;12.50;;;;;;;6.88;94.91;100984.66;110447;1275;22336;-79
2023/10/17 09:17:10;;;;;;;29.00;13.00;;;;;;;6.99;94.58;100982.65;110482;1274;22169;-78
2023/10/17 09:19:50;;;;;;;28.60;12.70;;;;;;;7.08;94.65;100984.84;110450;1274;22176;-79
2023/10/17 09:22:40;;;;;;;26.10;12.20;;;;;;;7.18;94.89;100982.27;110411;1275;22233;-79
2023/10/17 09:25:22;;;;;;;29.20;10.90;;;;;;;7.29;94.74;100985.92;110448;1274;22322;-79
2023/10/17 09:27:56;;;;;;;35.50;13.70;;;;;;;7.39;94.51;100986.23;110425;1270;22196;-78
2023/10/17 09:30:30;;;;;;;34.20;13.60;;;;;;;7.49;94.70;100985.86;110462;1274;22134;-78
2023/10/17 09:33:01;;;;;;;26.50;11.60;;;;;;;7.60;94.62;100986.66;110442;1274;22850;-78
2023/10/17 09:35:33;;;;;;;25.70;12.10;;;;;;;7.71;94.65;100980.71;110473;1270;22135;-78
2023/10/17 09:38:11;;;;;;;28.10;12.90;;;;;;;7.80;94.47;100976.22;110451;1274;22235;-78
2023/10/17 09:40:42;;;;;;;28.30;12.90;;;;;;;7.89;94.09;100973.65;110488;1274;22181;-78
2023/10/17 09:43:14;;;;;;;26.10;11.20;;;;;;;7.97;94.23;100972.92;110507;1262;23081;-79
2023/10/17 09:45:47;;;;;;;29.90;12.60;;;;;;;8.06;94.16;100972.24;110436;1274;22868;-78
2023/10/17 09:48:22;;;;;;;32.80;13.30;;;;;;;8.13;93.84;100972.34;110464;1274;22284;-78
2023/10/17 09:50:57;;;;;;;29.90;13.60;;;;;;;8.21;93.69;100968.92;110412;1275;22169;-78
2023/10/17 09:53:36;;;;;;;29.60;11.50;;;;;;;8.26;93.63;100968.78;110457;1274;22194;-79
2023/10/17 09:56:13;;;;;;;25.60;11.20;;;;;;;8.36;93.94;100965.21;110478;1274;22207;-79
2023/10/17 09:58:49;;;;;;;28.90;11.80;;;;;;;8.44;93.69;100958.26;110501;1274;22329;-78
2023/10/17 10:01:23;;;;;;;26.40;11.00;;;;;;;8.53;93.66;100956.63;110460;1274;22185;-78
2023/10/17 10:03:57;;;;;;;24.90;9.70;;;;;;;8.61;93.59;100952.45;110473;1274;22208;-78
2023/10/17 10:06:31;;;;;;;23.60;9.10;;;;;;;8.66;92.73;100947.70;110478;1274;22767;-80
2023/10/17 10:09:27;;;;;;;24.00;8.50;;;;;;;8.67;92.56;100944.69;110432;1274;22177;-79
2023/10/17 10:12:02;;;;;;;22.30;8.70;;;;;;;8.75;92.79;100947.23;110458;1274;22143;-79
2023/10/17 10:14:49;;;;;;;25.30;9.60;;;;;;;8.80;92.37;100937.66;110500;1269;22897;-79
2023/10/17 10:17:20;;;;;;;21.20;8.80;;;;;;;8.84;92.18;100934.89;110464;1271;22141;-79
2023/10/17 10:20:04;;;;;;;20.10;9.10;;;;;;;8.88;92.04;100931.55;110437;1274;22242;-79
2023/10/17 10:22:56;;;;;;;18.90;6.40;;;;;;;8.94;92.15;100930.95;110462;1263;22223;-78
2023/10/17 10:25:27;;;;;;;16.00;6.10;;;;;;;9.05;92.03;100928.59;110502;1269;22173;-79
2023/10/17 10:28:29;;;;;;;17.10;5.40;;;;;;;9.17;91.70;100934.27;110487;1274;22148;-78
2023/10/17 10:31:22;;;;;;;13.10;4.70;;;;;;;9.29;91.17;100932.23;110440;1274;22190;-79
2023/10/17 10:33:54;;;;;;;18.80;5.70;;;;;;;9.37;91.03;100925.73;110490;1274;22170;-78
2023/10/17 10:36:26;;;;;;;14.20;5.90;;;;;;;9.45;90.69;100919.93;110464;1271;22838;-79
2023/10/17 10:39:12;;;;;;;19.00;6.40;;;;;;;9.51;90.00;100916.84;110442;1274;22940;-79
2023/10/17 10:42:06;;;;;;;17.60;5.60;;;;;;;9.53;89.23;100912.05;110477;1267;22162;-79
2023/10/17 10:44:43;;;;;;;17.60;4.60;;;;;;;9.56;89.09;100904.63;110477;1274;22187;-79
2023/10/17 10:47:13;;;;;;;11.40;4.00;;;;;;;9.61;89.31;100903.63;110482;1274;22176;-79
2023/10/17 10:49:44;;;;;;;16.10;4.60;;;;;;;9.70;89.45;100901.00;110646;1274;22210;-80
2023/10/17 10:52:15;;;;;;;13.60;3.90;;;;;;;9.80;88.72;100896.71;110864;1259;22113;-79
2023/10/17 10:54:59;;;;;;;13.80;3.80;;;;;;;9.89;88.15;100897.21;110632;1274;22183;-80
2023/10/17 10:57:30;;;;;;;10.40;2.90;;;;;;;9.93;87.03;100895.52;110490;1274;22219;-79
2023/10/17 11:00:07;;;;;;;12.60;3.10;;;;;;;9.94;86.36;100886.88;110464;1267;22196;-79
2023/10/17 11:02:39;;;;;;;10.90;2.70;;;;;;;9.94;85.75;100889.04;110508;1274;24007;-79
2023/10/17 11:05:13;;;;;;;13.40;2.90;;;;;;;9.95;86.19;100889.08;110504;1274;22167;-79
2023/10/17 11:07:45;;;;;;;10.30;2.40;;;;;;;10.00;86.47;100881.39;110479;1266;23029;-79
2023/10/17 11:10:18;;;;;;;10.20;2.70;;;;;;;10.06;86.02;100879.48;109314;1274;22535;-79
2023/10/17 11:12:55;;;;;;;13.70;2.40;;;;;;;10.09;85.29;100880.24;107529;1274;25204;-78
2023/10/17 11:15:30;;;;;;;10.50;3.00;;;;;;;10.09;84.70;100880.05;110473;1274;22914;-79
2023/10/17 11:18:07;;;;;;;10.30;2.30;;;;;;;10.09;84.28;100879.50;110469;1274;22141;-79
2023/10/17 11:20:41;;;;;;;10.50;1.90;;;;;;;10.10;84.18;100876.46;110468;1274;22329;-79
2023/10/17 11:23:16;;;;;;;10.20;2.30;;;;;;;10.12;83.90;100875.43;110436;1275;22643;-78
2023/10/17 11:25:48;;;;;;;7.90;1.80;;;;;;;10.12;82.89;100875.81;110444;1269;22325;-79
2023/10/17 11:28:19;;;;;;;7.70;1.90;;;;;;;10.12;82.25;100872.23;110516;1274;22189;-79
2023/10/17 11:30:50;;;;;;;6.10;1.60;;;;;;;10.09;81.79;100865.33;110454;1274;22139;-79
2023/10/17 11:33:28;;;;;;;7.40;1.90;;;;;;;10.08;82.04;100860.17;110484;1274;23030;-79
2023/10/17 11:36:04;;;;;;;11.70;1.80;;;;;;;10.07;81.08;100862.59;110477;1274;22232;-78
2023/10/17 11:38:37;;;;;;;6.40;1.60;;;;;;;10.06;81.41;100857.14;110498;1274;22152;-80
2023/10/17 11:41:08;;;;;;;5.00;1.70;;;;;;;10.09;81.36;100849.16;110479;1274;22971;-79
2023/10/17 11:43:50;;;;;;;8.80;1.60;;;;;;;10.12;81.23;100851.11;110504;1266;22303;-79
2023/10/17 11:46:31;;;;;;;5.70;1.50;;;;;;;10.14;80.59;100847.37;110502;1269;22217;-79
2023/10/17 11:49:21;;;;;;;9.10;2.00;;;;;;;10.17;80.74;100840.05;110435;1274;22222;-79
2023/10/17 11:52:00;;;;;;;10.80;2.00;;;;;;;10.23;80.67;100839.81;110443;1274;22154;-79
2023/10/17 11:55:00;;;;;;;7.10;2.00;;;;;;;10.29;81.00;100839.72;110470;1274;22202;-79
2023/10/17 11:57:32;;;;;;;6.20;1.80;;;;;;;10.34;80.40;100837.27;110516;1274;22189;-79
2023/10/17 12:08:21;;;;;;;6.70;1.90;;;;;;;10.44;79.62;100829.25;110490;1274;22174;-79
2023/10/17 12:11:10;;;;;;;10.20;2.30;;;;;;;10.49;79.36;100822.27;110480;1274;22200;-79
2023/10/17 12:13:58;;;;;;;7.00;1.70;;;;;;;10.52;79.15;100819.73;110497;1274;22995;-79
2023/10/17 12:16:47;;;;;;;7.80;2.20;;;;;;;10.55;78.95;100817.83;110487;1274;22184;-79
2023/10/17 12:19:36;;;;;;;7.90;2.10;;;;;;;10.57;78.62;100816.56;110443;1260;22218;-79
2023/10/17 12:22:09;;;;;;;8.80;2.00;;;;;;;10.57;78.69;100816.41;110422;1265;23029;-80
2023/10/17 12:24:40;;;;;;;8.30;2.00;;;;;;;10.59;78.26;100816.61;110476;1266;22312;-79
2023/10/17 12:27:13;;;;;;;10.10;2.20;;;;;;;10.62;78.09;100815.00;110483;1259;22214;-79
2023/10/17 12:29:44;;;;;;;9.90;2.50;;;;;;;10.61;77.33;100809.55;110438;1274;22263;-79
2023/10/17 12:32:17;;;;;;;8.60;2.20;;;;;;;10.61;77.22;100808.22;110497;1274;22162;-79
2023/10/17 12:34:49;;;;;;;9.30;2.20;;;;;;;10.61;77.12;100806.39;110449;1271;23109;-79
2023/10/17 12:37:20;;;;;;;13.40;2.30;;;;;;;10.58;76.68;100806.54;110497;1274;22341;-79
2023/10/17 12:39:52;;;;;;;10.70;2.30;;;;;;;10.56;76.46;100807.91;110477;1274;22967;-79
2023/10/17 12:42:23;;;;;;;8.80;2.50;;;;;;;10.53;76.15;100804.77;110517;1269;22260;-79
2023/10/17 12:44:54;;;;;;;7.20;1.90;;;;;;;10.54;76.55;100806.09;110454;1272;22192;-79
2023/10/17 12:47:26;;;;;;;9.30;2.00;;;;;;;10.56;76.29;100805.06;110496;1274;22219;-79
2023/10/17 12:49:56;;;;;;;8.30;2.10;;;;;;;10.53;75.17;100796.64;110462;1272;22263;-79
2023/10/17 12:52:27;;;;;;;8.30;1.90;;;;;;;10.51;75.66;100795.13;110452;1275;22174;-79
2023/10/17 12:54:59;;;;;;;8.60;2.50;;;;;;;10.52;75.39;100789.91;110488;1268;22189;-79
2023/10/17 12:57:30;;;;;;;7.20;2.30;;;;;;;10.54;75.51;100790.14;110490;1269;22243;-79
2023/10/17 13:00:02;;;;;;;6.60;1.60;;;;;;;10.57;75.16;100788.89;110471;1274;22169;-79
2023/10/17 13:02:33;;;;;;;7.60;1.70;;;;;;;10.58;74.00;100783.67;110448;1275;22139;-79
2023/10/17 13:05:05;;;;;;;4.90;1.70;;;;;;;10.57;73.09;100783.05;110466;1272;22186;-79
2023/10/17 13:07:36;;;;;;;6.50;1.80;;;;;;;10.58;73.87;100779.59;110506;1274;23116;-80
2023/10/17 13:10:08;;;;;;;7.00;1.60;;;;;;;10.61;73.16;100782.09;110486;1274;22898;-79
2023/10/17 13:12:40;;;;;;;9.90;1.70;;;;;;;10.62;72.85;100778.89;110455;1274;22842;-79
2023/10/17 13:15:15;;;;;;;6.80;1.60;;;;;;;10.63;72.81;100781.13;110508;1274;22140;-80
2023/10/17 13:17:52;;;;;;;6.30;1.30;;;;;;;10.66;72.60;100779.36;110446;1274;23179;-80
2023/10/17 13:20:28;;;;;;;6.00;1.50;;;;;;;10.67;72.50;100777.29;110460;1274;22194;-80
2023/10/17 13:23:03;;;;;;;8.00;1.80;;;;;;;10.68;71.88;100777.71;110441;1275;22506;-80
2023/10/17 13:25:38;;;;;;;5.70;1.60;;;;;;;10.70;71.97;100774.30;110486;1272;22180;-79